Time;durP1;ratioP1;P1;durP2;ratioP2;P2;SDS_P1;SDS_P2;PMS_P1;PMS_P2;Temp;Humidity;BMP_temperature;BMP_pressure;BME280_temperature;BME280_humidity;BME280_pressure;Samples;Min_cycle;Max_cycle;Signal;HPM_P1;HPM_P2
2022/06/15 00:00:00;;;;;;;9.13;3.95;;;;;;;12.54;82.72;101927.63;5045759;28;20044;-65
2022/06/15 00:02:25;;;;;;;11.68;3.80;;;;;;;12.51;82.95;101925.13;5049948;28;20048;-65
2022/06/15 00:04:50;;;;;;;7.78;3.55;;;;;;;12.42;83.69;101923.81;5029040;28;20049;-65
2022/06/15 00:07:16;;;;;;;7.15;3.80;;;;;;;12.43;83.68;101913.97;5047706;28;20037;-65
2022/06/15 00:09:41;;;;;;;6.25;3.63;;;;;;;12.47;83.70;101920.03;5050652;28;20040;-65
2022/06/15 00:12:08;;;;;;;6.10;3.75;;;;;;;12.51;83.94;101919.78;5047999;28;20048;-65
2022/06/15 00:14:35;;;;;;;7.57;4.20;;;;;;;12.47;83.78;101918.22;5037736;28;20029;-64
2022/06/15 00:17:00;;;;;;;271.35;18.90;;;;;;;12.44;84.24;101926.38;5049871;28;20503;-65
2022/06/15 00:19:25;;;;;;;7.97;3.63;;;;;;;12.28;84.27;101925.47;5051507;28;20036;-65
2022/06/15 00:21:52;;;;;;;6.53;3.63;;;;;;;12.36;83.79;101928.63;5053956;28;20036;-65
2022/06/15 00:24:18;;;;;;;8.25;3.65;;;;;;;12.26;83.75;101920.22;5053956;28;20040;-65
2022/06/15 00:26:44;;;;;;;7.22;4.50;;;;;;;12.28;83.82;101930.84;5054403;28;20052;-65
2022/06/15 00:29:10;;;;;;;8.07;3.63;;;;;;;12.37;83.75;101927.66;5052747;28;20084;-65
2022/06/15 00:31:35;;;;;;;538.42;35.22;;;;;;;12.25;84.09;101926.53;5033181;28;20071;-65
2022/06/15 00:34:03;;;;;;;7.43;4.00;;;;;;;12.28;84.05;101920.13;5046393;28;20072;-65
2022/06/15 00:36:29;;;;;;;6.47;3.92;;;;;;;12.08;84.99;101923.84;5051552;28;20092;-65
2022/06/15 00:38:56;;;;;;;8.70;3.70;;;;;;;12.07;84.78;101917.66;5054428;28;20143;-65
2022/06/15 00:41:33;;;;;;;10.93;5.40;;;;;;;12.11;84.80;101926.38;5047780;28;20029;-64
2022/06/15 00:44:02;;;;;;;7.15;4.05;;;;;;;11.96;85.67;101921.84;5046053;28;20268;-64
2022/06/15 00:46:39;;;;;;;13.35;4.47;;;;;;;11.89;86.04;101931.97;5054313;28;20025;-65
2022/06/15 00:49:11;;;;;;;6.78;4.22;;;;;;;11.84;86.08;101942.03;5052396;28;20043;-64
2022/06/15 00:51:37;;;;;;;11.07;4.10;;;;;;;11.75;86.77;101935.31;5052055;28;20048;-65
2022/06/15 00:54:03;;;;;;;11.05;4.47;;;;;;;11.77;86.82;101928.09;5031046;28;20762;-65
2022/06/15 00:56:30;;;;;;;17.95;4.30;;;;;;;11.82;86.55;101925.22;5043483;28;20086;-65
2022/06/15 00:59:03;;;;;;;10.25;5.00;;;;;;;11.96;85.76;101929.84;5039166;28;20032;-66
2022/06/15 01:01:29;;;;;;;11.18;4.60;;;;;;;11.87;86.49;101925.84;5054090;28;20084;-65
2022/06/15 01:03:57;;;;;;;9.15;4.00;;;;;;;11.83;86.39;101921.59;5049313;28;20048;-65
2022/06/15 01:06:48;;;;;;;10.63;3.92;;;;;;;11.86;85.98;101916.97;5043420;28;20048;-65
2022/06/15 01:09:14;;;;;;;6.80;3.53;;;;;;;11.78;86.30;101924.47;5031209;28;20045;-65
2022/06/15 01:12:09;;;;;;;11.75;4.78;;;;;;;11.66;86.85;101920.63;5034416;28;20056;-65
2022/06/15 01:15:16;;;;;;;6.20;4.25;;;;;;;11.70;87.19;101923.13;5042473;28;20036;-65
2022/06/15 01:17:56;;;;;;;12.82;4.93;;;;;;;11.70;87.13;101920.44;5054662;28;20104;-65
2022/06/15 01:20:34;;;;;;;9.60;4.45;;;;;;;11.70;86.81;101923.13;5052755;28;20394;-64
2022/06/15 01:23:30;;;;;;;7.70;4.13;;;;;;;11.69;86.40;101916.91;5019079;28;20662;-66
2022/06/15 01:26:20;;;;;;;10.63;4.22;;;;;;;11.57;87.96;101922.88;5050214;28;20061;-65
2022/06/15 01:28:55;;;;;;;7.32;4.53;;;;;;;11.62;87.26;101921.72;5052887;28;20569;-66
2022/06/15 01:31:41;;;;;;;5.90;4.25;;;;;;;11.56;87.40;101921.16;5031099;28;20060;-65
2022/06/15 01:34:15;;;;;;;8.77;4.57;;;;;;;11.37;88.20;101923.88;5045402;28;20522;-64
2022/06/15 01:36:52;;;;;;;15.60;5.10;;;;;;;11.45;87.60;101924.38;5051759;28;20036;-65
2022/06/15 01:39:23;;;;;;;9.20;4.97;;;;;;;11.36;87.94;101912.34;5050632;28;20040;-65
2022/06/15 01:42:00;;;;;;;8.27;4.60;;;;;;;11.33;88.00;101917.81;5030263;28;20049;-65
2022/06/15 01:44:40;;;;;;;8.77;5.38;;;;;;;11.21;89.34;101923.75;5047026;28;20044;-65
2022/06/15 01:47:10;;;;;;;8.50;4.78;;;;;;;11.31;88.51;101911.69;5029626;28;20033;-65
2022/06/15 01:49:50;;;;;;;13.07;6.27;;;;;;;11.41;87.74;101910.28;5028833;28;20044;-65
2022/06/15 01:52:22;;;;;;;12.38;5.72;;;;;;;11.27;88.23;101907.44;5051162;28;20386;-66
2022/06/15 01:55:02;;;;;;;11.32;4.88;;;;;;;11.10;88.72;101908.28;5052281;28;20856;-65
2022/06/15 01:57:29;;;;;;;8.77;5.00;;;;;;;11.21;88.53;101910.41;5030498;28;20122;-65
2022/06/15 02:00:01;;;;;;;9.38;5.43;;;;;;;11.08;89.25;101907.47;5022841;28;20619;-65
2022/06/15 02:02:56;;;;;;;7.82;4.75;;;;;;;10.99;88.92;101901.69;5032717;28;20109;-65
2022/06/15 02:05:37;;;;;;;9.57;4.80;;;;;;;10.88;89.36;101899.53;5037691;28;20118;-65
2022/06/15 02:08:22;;;;;;;9.40;4.65;;;;;;;10.76;89.86;101901.00;5048273;28;20036;-65
2022/06/15 02:11:03;;;;;;;11.18;5.20;;;;;;;10.72;90.79;101903.88;5044091;28;20789;-65
2022/06/15 02:13:40;;;;;;;11.43;5.93;;;;;;;10.71;91.32;101897.69;5030138;28;20582;-65
2022/06/15 02:16:17;;;;;;;8.45;5.55;;;;;;;10.80;91.04;101894.59;5023753;28;20037;-64
2022/06/15 02:18:46;;;;;;;9.02;5.13;;;;;;;10.77;91.04;101896.53;5019705;28;20044;-65
2022/06/15 02:21:17;;;;;;;14.52;6.50;;;;;;;10.82;90.49;101889.19;5030480;28;20089;-65
2022/06/15 02:23:46;;;;;;;7.78;5.80;;;;;;;10.78;90.76;101892.91;5020540;28;20032;-65
2022/06/15 02:26:16;;;;;;;10.13;5.35;;;;;;;10.79;90.57;101895.53;5041999;28;20055;-65
2022/06/15 02:28:51;;;;;;;9.88;5.47;;;;;;;10.84;89.71;101890.84;5030383;28;20091;-65
2022/06/15 02:31:16;;;;;;;13.80;6.32;;;;;;;10.84;89.86;101889.94;5021941;28;20065;-64
2022/06/15 02:33:48;;;;;;;11.75;5.72;;;;;;;10.79;90.35;101887.53;5033466;28;20047;-66
2022/06/15 02:36:14;;;;;;;8.43;5.55;;;;;;;10.71;90.26;101883.50;5031766;28;20904;-66
2022/06/15 02:38:42;;;;;;;9.57;4.88;;;;;;;10.25;90.50;101885.63;5051176;28;20193;-65
2022/06/15 02:41:09;;;;;;;8.23;6.03;;;;;;;10.28;91.36;101882.78;5028124;28;20242;-66
2022/06/15 02:43:38;;;;;;;12.93;5.95;;;;;;;10.36;92.05;101881.53;5026715;28;20061;-65
2022/06/15 02:46:05;;;;;;;10.60;5.22;;;;;;;10.47;90.41;101877.50;5029753;28;20039;-65
2022/06/15 02:48:31;;;;;;;8.40;5.30;;;;;;;10.51;90.08;101881.75;5030757;28;20036;-65
2022/06/15 02:51:10;;;;;;;11.90;5.97;;;;;;;10.43;91.31;101890.09;5030214;28;20114;-66
2022/06/15 02:53:41;;;;;;;9.15;5.05;;;;;;;10.41;90.95;101888.44;5030022;28;20186;-66
2022/06/15 02:56:11;;;;;;;7.10;5.07;;;;;;;10.41;91.50;101883.97;5023723;28;20569;-65
2022/06/15 02:58:41;;;;;;;16.00;6.43;;;;;;;10.53;91.25;101882.53;5051544;28;20036;-65
2022/06/15 03:01:07;;;;;;;10.52;5.40;;;;;;;10.39;90.59;101877.84;5029594;28;20040;-66
2022/06/15 03:03:36;;;;;;;8.50;5.40;;;;;;;10.44;91.02;101874.97;5029273;28;20229;-66
2022/06/15 03:06:14;;;;;;;29.10;7.65;;;;;;;10.47;90.62;101888.16;5048274;28;20045;-65
2022/06/15 03:08:41;;;;;;;10.35;5.43;;;;;;;10.33;90.61;101875.44;5039109;28;20155;-66
2022/06/15 03:11:16;;;;;;;8.32;5.25;;;;;;;10.35;90.33;101870.94;5032535;28;20035;-66
2022/06/15 03:13:42;;;;;;;14.10;6.45;;;;;;;10.44;90.39;101862.53;5029738;28;20051;-66
2022/06/15 03:16:08;;;;;;;10.93;6.18;;;;;;;10.34;91.12;101871.84;5028028;28;20909;-65
2022/06/15 03:18:35;;;;;;;13.15;6.53;;;;;;;10.38;91.43;101866.31;5029998;28;20037;-66
2022/06/15 03:21:06;;;;;;;11.63;6.00;;;;;;;10.33;91.34;101868.31;5030026;28;20041;-66
2022/06/15 03:23:32;;;;;;;10.60;7.20;;;;;;;10.37;92.59;101874.38;5029673;28;20065;-65
2022/06/15 03:26:01;;;;;;;13.13;5.95;;;;;;;10.33;91.67;101870.97;5022277;28;20045;-66
2022/06/15 03:28:27;;;;;;;13.32;6.97;;;;;;;10.51;91.10;101868.41;5028575;28;20035;-66
2022/06/15 03:30:53;;;;;;;11.35;6.55;;;;;;;10.44;92.10;101870.50;5020872;28;20040;-65
2022/06/15 03:33:19;;;;;;;12.70;6.53;;;;;;;10.59;91.55;101868.91;5026409;28;20033;-66
2022/06/15 03:35:46;;;;;;;8.55;6.13;;;;;;;10.68;90.35;101873.81;5039402;28;20043;-66
2022/06/15 03:38:17;;;;;;;10.43;6.05;;;;;;;10.78;89.93;101880.44;5030071;28;20079;-66
2022/06/15 03:41:09;;;;;;;7.47;5.73;;;;;;;10.91;90.20;101874.53;5047472;28;20057;-65
2022/06/15 03:43:34;;;;;;;9.73;5.55;;;;;;;10.79;89.40;101875.97;5029107;28;20467;-66
2022/06/15 03:46:00;;;;;;;9.30;5.85;;;;;;;11.18;89.07;101867.84;5019579;28;20790;-65
2022/06/15 03:48:32;;;;;;;9.25;5.90;;;;;;;11.14;89.28;101874.25;5032147;28;20047;-66
2022/06/15 03:50:57;;;;;;;7.78;5.93;;;;;;;11.29;88.66;101877.97;5032243;28;20028;-65
2022/06/15 03:53:24;;;;;;;11.77;6.18;;;;;;;11.32;88.25;101872.50;5031566;28;20039;-65
2022/06/15 03:55:50;;;;;;;23.92;22.10;;;;;;;11.19;88.73;101863.34;5030203;28;20028;-65
2022/06/15 03:58:19;;;;;;;10.38;6.07;;;;;;;11.01;89.48;101876.69;5035383;28;20048;-66
2022/06/15 04:00:48;;;;;;;11.82;5.60;;;;;;;11.17;89.18;101870.59;5030441;28;20841;-66
2022/06/15 04:03:15;;;;;;;27.98;10.32;;;;;;;11.13;89.15;101870.72;5025521;28;20200;-67
2022/06/15 04:05:53;;;;;;;10.38;7.25;;;;;;;11.14;89.71;101867.16;5051491;28;20987;-66
2022/06/15 04:08:39;;;;;;;10.90;6.35;;;;;;;11.07;89.93;101870.19;5033140;28;20963;-65
2022/06/15 04:12:31;;;;;;;11.63;6.07;;;;;;;11.32;89.05;101877.84;5049554;28;20143;-66
2022/06/15 04:14:34;;;;;;;10.45;6.25;;;;;;;11.34;89.19;101882.16;5027820;28;20415;-64
2022/06/15 04:17:08;;;;;;;13.30;6.90;;;;;;;11.33;89.50;101885.75;5031498;28;20115;-65
2022/06/15 04:22:39;;;;;;;14.15;6.28;;;;;;;11.61;88.94;101874.56;5032329;28;20072;-66
2022/06/15 04:25:05;;;;;;;10.57;5.97;;;;;;;11.61;89.38;101865.69;5031314;28;20741;-66
2022/06/15 04:27:32;;;;;;;15.13;7.82;;;;;;;11.60;90.02;101864.81;5028093;28;20063;-65
2022/06/15 04:29:59;;;;;;;11.88;7.00;;;;;;;11.62;90.12;101873.63;5052918;28;20682;-66
2022/06/15 04:32:25;;;;;;;9.02;6.82;;;;;;;11.66;90.24;101871.66;5031304;28;20041;-65
2022/06/15 04:34:52;;;;;;;12.35;6.32;;;;;;;11.64;91.31;101871.72;5031123;28;20372;-65
2022/06/15 04:37:17;;;;;;;11.10;6.72;;;;;;;11.78;90.56;101871.00;5034516;28;20048;-65
2022/06/15 04:39:47;;;;;;;8.05;6.30;;;;;;;11.88;89.98;101866.94;5032200;28;20057;-65
2022/06/15 04:42:12;;;;;;;11.55;7.07;;;;;;;11.95;89.56;101874.63;5031044;28;20048;-66
2022/06/15 04:44:38;;;;;;;13.63;7.07;;;;;;;12.15;88.90;101870.00;5046473;28;20048;-65
2022/06/15 04:47:05;;;;;;;17.05;7.22;;;;;;;12.11;89.43;101864.88;5034894;28;20564;-66
2022/06/15 04:49:31;;;;;;;13.93;6.75;;;;;;;12.03;90.51;101873.31;5041217;28;20037;-65
2022/06/15 04:51:57;;;;;;;16.00;7.00;;;;;;;12.14;90.37;101870.91;5027589;28;20029;-66
2022/06/15 04:54:24;;;;;;;10.75;7.50;;;;;;;13.55;86.25;101876.38;5022787;28;20655;-66
2022/06/15 04:56:54;;;;;;;11.07;6.75;;;;;;;15.41;76.10;101857.47;5036984;28;20094;-66
2022/06/15 04:59:20;;;;;;;14.77;6.00;;;;;;;16.03;71.91;101863.09;5038857;28;20498;-65
2022/06/15 05:01:48;;;;;;;9.15;5.40;;;;;;;16.68;69.25;101859.38;5031338;28;20033;-66
2022/06/15 05:04:16;;;;;;;10.77;5.40;;;;;;;16.80;67.95;101871.97;5030866;28;20036;-66
2022/06/15 05:06:42;;;;;;;11.65;5.35;;;;;;;17.38;66.22;101861.38;5034759;28;20139;-66
2022/06/15 05:09:12;;;;;;;12.38;5.05;;;;;;;17.56;64.86;101868.06;5030843;28;20033;-66
2022/06/15 05:11:37;;;;;;;11.80;5.68;;;;;;;17.92;63.73;101858.97;5027094;28;20559;-67
2022/06/15 05:14:03;;;;;;;7.55;5.05;;;;;;;18.57;61.24;101863.69;5032659;28;20094;-66
2022/06/15 05:16:34;;;;;;;15.23;5.72;;;;;;;17.98;62.84;101868.47;5031671;28;20656;-67
2022/06/15 05:19:00;;;;;;;7.53;5.00;;;;;;;18.03;63.54;101860.88;5013721;28;20044;-65
2022/06/15 05:21:29;;;;;;;8.90;5.32;;;;;;;18.71;60.97;101873.41;5022423;28;20040;-66
2022/06/15 05:23:55;;;;;;;10.95;5.00;;;;;;;18.76;61.23;101865.78;5031156;28;20037;-67
2022/06/15 05:26:57;;;;;;;10.73;4.97;;;;;;;18.49;61.36;101871.56;5036685;28;20497;-66
2022/06/15 05:29:22;;;;;;;12.60;5.32;;;;;;;18.98;61.56;101856.78;5043648;28;20036;-67
2022/06/15 05:31:53;;;;;;;11.90;5.18;;;;;;;18.63;63.17;101865.06;5032891;28;20029;-66
2022/06/15 05:34:19;;;;;;;11.75;4.78;;;;;;;17.82;63.66;101866.97;5028326;28;20040;-66
2022/06/15 05:36:44;;;;;;;9.05;4.70;;;;;;;18.69;61.43;101867.28;5027971;28;20102;-66
2022/06/15 05:39:10;;;;;;;10.10;5.10;;;;;;;18.82;61.09;101864.41;5022415;28;20988;-66
2022/06/15 05:41:40;;;;;;;8.27;4.72;;;;;;;18.29;62.62;101859.66;5034585;28;20029;-66
2022/06/15 05:47:00;;;;;;;11.32;5.00;;;;;;;18.27;62.14;101864.34;5027444;28;20041;-65
2022/06/15 05:49:46;;;;;;;6.55;4.75;;;;;;;18.89;61.40;101855.69;5030746;28;20095;-66
2022/06/15 05:52:14;;;;;;;7.75;5.32;;;;;;;18.75;61.95;101864.06;5030571;28;20128;-65
2022/06/15 05:54:43;;;;;;;10.70;5.15;;;;;;;18.98;61.56;101862.19;5037018;28;20033;-66
2022/06/15 05:57:15;;;;;;;8.05;4.60;;;;;;;19.02;61.99;101863.63;5043500;28;20087;-66
2022/06/15 05:59:41;;;;;;;8.07;4.80;;;;;;;19.66;60.06;101857.41;5031918;28;20053;-66
2022/06/15 06:02:09;;;;;;;8.38;4.78;;;;;;;19.44;61.11;101862.91;5030391;28;20067;-66
2022/06/15 06:04:35;;;;;;;12.05;5.32;;;;;;;19.72;59.24;101858.72;5031310;28;20048;-66
2022/06/15 06:07:01;;;;;;;7.43;4.72;;;;;;;19.68;60.25;101847.31;5030901;28;20045;-66
2022/06/15 06:09:28;;;;;;;11.30;5.20;;;;;;;20.14;57.96;101859.56;5036550;28;20036;-66
2022/06/15 06:11:54;;;;;;;14.27;4.75;;;;;;;20.02;60.47;101860.63;5036739;28;20040;-66
2022/06/15 06:14:20;;;;;;;7.32;5.20;;;;;;;20.09;57.66;101853.69;5034257;28;20475;-67
2022/06/15 06:16:45;;;;;;;8.18;4.68;;;;;;;20.71;56.50;101849.97;5028829;28;20798;-66
2022/06/15 06:19:11;;;;;;;7.28;4.80;;;;;;;20.58;57.99;101839.41;5034185;28;20047;-66
2022/06/15 06:21:37;;;;;;;11.13;4.82;;;;;;;20.43;59.84;101847.03;5031001;28;20033;-66
2022/06/15 06:24:02;;;;;;;10.82;4.97;;;;;;;20.25;58.09;101845.06;5029489;28;20032;-65
2022/06/15 06:26:33;;;;;;;8.73;4.68;;;;;;;20.76;57.97;101845.00;5035255;28;20088;-66
2022/06/15 06:28:59;;;;;;;14.88;4.97;;;;;;;20.88;56.87;101852.03;5030612;28;20041;-65
2022/06/15 06:31:26;;;;;;;11.25;5.07;;;;;;;20.43;58.46;101855.16;5029707;28;20037;-66
2022/06/15 06:33:53;;;;;;;14.40;5.13;;;;;;;20.03;60.41;101856.91;5038304;28;20063;-66
2022/06/15 06:36:21;;;;;;;11.40;6.05;;;;;;;20.13;58.80;101850.59;5032854;28;20807;-66
2022/06/15 06:38:46;;;;;;;8.68;5.50;;;;;;;20.38;57.89;101851.09;5046933;28;20036;-66
2022/06/15 06:41:16;;;;;;;6.45;4.82;;;;;;;20.91;57.36;101845.47;5033920;28;20041;-66
2022/06/15 06:43:41;;;;;;;11.80;5.07;;;;;;;20.14;59.64;101849.59;5028151;28;20143;-66
2022/06/15 06:46:07;;;;;;;14.35;5.60;;;;;;;20.84;58.48;101858.72;5027098;28;20399;-68
2022/06/15 06:48:32;;;;;;;6.85;4.50;;;;;;;21.13;57.59;101855.19;5030713;28;20515;-66
2022/06/15 06:50:58;;;;;;;6.93;4.72;;;;;;;20.39;56.70;101861.81;5029785;28;20040;-66
2022/06/15 06:53:23;;;;;;;11.32;5.53;;;;;;;20.97;55.76;101860.31;5029079;28;20041;-66
2022/06/15 06:55:49;;;;;;;10.48;5.72;;;;;;;21.42;56.75;101860.66;5030071;28;20043;-66
2022/06/15 06:58:14;;;;;;;12.93;4.60;;;;;;;21.41;55.70;101861.66;5020225;28;20060;-66
2022/06/15 07:00:40;;;;;;;15.38;5.13;;;;;;;21.50;56.00;101855.38;5041404;28;20044;-66
2022/06/15 07:03:06;;;;;;;9.57;4.47;;;;;;;21.69;55.38;101855.38;5030157;28;20064;-66
2022/06/15 07:05:36;;;;;;;12.88;5.18;;;;;;;21.21;55.46;101863.50;5029930;28;20055;-65
2022/06/15 07:08:02;;;;;;;9.82;4.78;;;;;;;21.23;55.73;101856.03;5029005;28;20055;-66
2022/06/15 07:10:28;;;;;;;6.63;4.13;;;;;;;21.40;54.44;101862.69;5040340;28;20374;-66
2022/06/15 07:12:54;;;;;;;10.48;4.25;;;;;;;21.94;53.45;101864.78;5049859;28;20881;-66
2022/06/15 07:15:20;;;;;;;9.00;4.40;;;;;;;21.87;53.46;101865.47;5049466;28;20047;-66
2022/06/15 07:17:46;;;;;;;9.70;4.47;;;;;;;21.27;52.94;101871.06;5050759;28;20459;-66
2022/06/15 07:20:12;;;;;;;8.48;4.00;;;;;;;21.23;53.44;101876.91;5049759;28;20033;-66
2022/06/15 07:22:38;;;;;;;7.13;3.67;;;;;;;21.58;54.41;101871.78;5050291;28;20575;-66
2022/06/15 07:25:05;;;;;;;8.75;4.53;;;;;;;21.49;53.40;101875.41;5049021;28;20396;-66
2022/06/15 07:27:39;;;;;;;8.70;3.50;;;;;;;21.99;53.36;101883.34;5049944;28;20122;-66
2022/06/15 07:30:08;;;;;;;9.93;3.67;;;;;;;21.68;52.02;101885.38;5052756;28;20777;-65
2022/06/15 07:32:33;;;;;;;7.13;4.28;;;;;;;21.11;52.80;101893.31;5054366;28;20074;-66
2022/06/15 07:34:58;;;;;;;13.95;3.92;;;;;;;21.42;51.63;101885.09;5053826;28;20562;-66
2022/06/15 07:37:24;;;;;;;10.77;4.50;;;;;;;21.87;55.09;101882.63;5053877;28;20322;-66
2022/06/15 07:39:49;;;;;;;8.10;3.95;;;;;;;21.41;52.70;101888.81;5054079;28;20512;-65
2022/06/15 07:42:15;;;;;;;8.95;4.38;;;;;;;22.33;52.80;101889.13;5044631;28;20442;-66
2022/06/15 07:44:40;;;;;;;6.05;3.53;;;;;;;22.55;51.87;101882.47;5033036;28;20040;-66
2022/06/15 07:49:55;;;;;;;10.40;3.78;;;;;;;22.46;51.13;101883.38;5037669;28;20448;-65
2022/06/15 07:52:26;;;;;;;8.10;3.53;;;;;;;22.21;51.98;101880.31;5032954;28;20032;-65
2022/06/15 07:54:52;;;;;;;7.78;3.40;;;;;;;22.12;51.11;101880.31;5033208;28;20045;-66
2022/06/15 07:57:18;;;;;;;9.43;4.05;;;;;;;22.34;50.49;101880.00;5046327;28;20865;-66
2022/06/15 07:59:44;;;;;;;18.75;4.22;;;;;;;22.53;50.86;101880.91;5051224;28;20486;-66
2022/06/15 08:02:10;;;;;;;6.82;3.42;;;;;;;22.99;51.54;101880.84;5048495;28;20824;-66
2022/06/15 08:04:36;;;;;;;4.82;3.88;;;;;;;22.69;47.53;101881.09;5034162;28;20040;-65
2022/06/15 08:07:02;;;;;;;12.07;4.68;;;;;;;22.87;48.72;101882.00;5032679;28;20037;-66
2022/06/15 08:09:27;;;;;;;8.05;3.13;;;;;;;22.66;48.69;101882.28;5035315;28;20149;-65
2022/06/15 08:12:11;;;;;;;4.75;2.83;;;;;;;22.52;51.94;101890.91;5043407;28;20029;-65
2022/06/15 08:14:44;;;;;;;8.02;3.40;;;;;;;22.41;48.39;101877.53;5031748;28;20033;-65
2022/06/15 08:17:38;;;;;;;11.55;3.95;;;;;;;22.25;51.33;101889.03;5041043;28;20604;-65
2022/06/15 08:20:36;;;;;;;6.68;3.13;;;;;;;22.16;53.00;101873.59;5037928;28;20052;-66
2022/06/15 08:23:09;;;;;;;6.55;3.30;;;;;;;22.79;50.25;101876.47;5044486;28;20154;-65
2022/06/15 08:25:39;;;;;;;8.45;3.17;;;;;;;22.50;50.38;101876.63;5035109;28;20087;-65
2022/06/15 08:28:07;;;;;;;6.75;2.65;;;;;;;22.14;48.21;101881.91;5031368;28;20568;-64
2022/06/15 08:30:34;;;;;;;9.32;2.47;;;;;;;22.40;49.14;101876.66;5031764;28;20165;-65
2022/06/15 08:33:00;;;;;;;8.88;3.42;;;;;;;22.03;50.23;101870.31;5031467;28;20029;-64
2022/06/15 08:35:25;;;;;;;6.65;2.47;;;;;;;22.49;47.55;101875.78;5030236;28;20632;-66
2022/06/15 08:37:51;;;;;;;9.00;2.35;;;;;;;22.42;48.29;101866.50;5032012;28;20759;-65
2022/06/15 08:40:17;;;;;;;9.90;4.07;;;;;;;22.22;46.10;101876.56;5031646;28;20045;-66
2022/06/15 08:42:55;;;;;;;10.10;2.95;;;;;;;22.48;48.36;101874.03;5032847;28;20033;-66
2022/06/15 08:45:49;;;;;;;11.38;3.42;;;;;;;22.87;48.64;101876.56;5032719;28;20132;-65
2022/06/15 08:48:29;;;;;;;5.93;3.17;;;;;;;22.31;48.51;101884.84;5029057;28;20099;-65
2022/06/15 08:51:27;;;;;;;8.55;2.90;;;;;;;23.37;51.13;101880.69;5031597;28;20075;-65
2022/06/15 08:54:04;;;;;;;8.38;3.13;;;;;;;22.60;48.71;101877.44;5031697;28;20041;-65
2022/06/15 08:56:40;;;;;;;6.13;2.88;;;;;;;23.11;48.84;101876.03;5033193;28;20713;-65
2022/06/15 08:59:13;;;;;;;7.68;2.75;;;;;;;22.56;46.51;101883.31;5036346;28;20043;-65
2022/06/15 09:02:16;;;;;;;9.85;3.03;;;;;;;22.64;46.40;101875.25;5031820;28;20040;-65
2022/06/15 09:04:47;;;;;;;10.77;2.63;;;;;;;22.94;47.20;101872.28;5034143;28;20049;-65
2022/06/15 09:07:53;;;;;;;10.52;3.55;;;;;;;22.41;47.37;101878.38;5030927;28;20195;-65
2022/06/15 09:10:39;;;;;;;10.55;3.13;;;;;;;22.97;50.13;101871.97;5041785;28;20048;-66
2022/06/15 09:13:16;;;;;;;13.30;4.45;;;;;;;22.01;49.14;101872.31;5050300;28;20052;-65
2022/06/15 09:15:51;;;;;;;8.70;3.50;;;;;;;22.61;48.83;101878.28;5051668;28;20228;-66
2022/06/15 09:18:29;;;;;;;5.40;3.20;;;;;;;21.98;47.74;101884.31;5050603;28;20785;-66
2022/06/15 09:21:02;;;;;;;8.02;3.60;;;;;;;21.97;46.74;101877.19;5051965;28;20151;-65
2022/06/15 09:23:36;;;;;;;8.00;3.10;;;;;;;22.76;49.42;101879.50;5052229;28;20975;-65
2022/06/15 09:26:11;;;;;;;10.93;2.97;;;;;;;22.57;47.44;101887.75;5050301;28;20044;-65
2022/06/15 09:28:42;;;;;;;5.03;2.80;;;;;;;22.54;46.70;101882.59;5051556;28;20281;-65
2022/06/15 09:31:44;;;;;;;6.20;3.05;;;;;;;22.91;46.80;101880.75;5029142;28;20049;-65
2022/06/15 09:34:16;;;;;;;8.63;3.05;;;;;;;22.54;46.65;101878.06;5040312;28;20090;-65
2022/06/15 09:36:48;;;;;;;6.87;2.97;;;;;;;22.49;45.08;101873.06;5051367;28;20048;-65
2022/06/15 09:39:14;;;;;;;8.63;3.22;;;;;;;22.31;50.54;101874.84;5049776;28;20486;-66
2022/06/15 09:41:50;;;;;;;11.45;2.90;;;;;;;22.56;45.76;101878.75;5050108;28;20735;-65
2022/06/15 09:44:31;;;;;;;5.53;3.20;;;;;;;22.49;46.70;101870.34;5050549;28;20746;-66
2022/06/15 09:47:21;;;;;;;12.23;3.13;;;;;;;23.32;48.81;101861.25;5051294;28;20098;-65
2022/06/15 09:49:55;;;;;;;5.15;2.75;;;;;;;23.24;44.35;101870.19;5051283;28;20044;-65
2022/06/15 09:52:36;;;;;;;3.72;2.70;;;;;;;22.74;45.90;101863.34;5048843;28;20037;-65
2022/06/15 09:55:38;;;;;;;8.85;3.05;;;;;;;23.02;48.50;101862.50;5049686;28;20048;-65
2022/06/15 09:58:07;;;;;;;7.68;3.03;;;;;;;23.04;47.43;101861.31;5041627;28;20048;-66
2022/06/15 10:00:36;;;;;;;6.82;3.03;;;;;;;22.97;45.12;101863.78;5050910;28;20032;-65
2022/06/15 10:03:06;;;;;;;4.65;2.72;;;;;;;23.12;45.35;101869.56;5049951;28;20079;-66
2022/06/15 10:05:39;;;;;;;10.93;3.53;;;;;;;22.58;41.89;101862.28;5050549;28;20048;-66
2022/06/15 10:08:10;;;;;;;7.28;2.85;;;;;;;22.92;43.45;101866.13;5044068;28;20229;-66
2022/06/15 10:10:44;;;;;;;7.22;2.78;;;;;;;22.84;44.23;101862.41;5042492;28;20082;-65
2022/06/15 10:13:19;;;;;;;8.20;2.95;;;;;;;23.23;44.58;101853.00;5049074;28;20040;-65
2022/06/15 10:15:52;;;;;;;4.90;2.63;;;;;;;23.54;44.27;101852.59;5050486;28;20040;-65
2022/06/15 10:18:26;;;;;;;6.38;2.45;;;;;;;22.84;43.96;101851.53;5049285;28;20494;-67
2022/06/15 10:21:13;;;;;;;8.18;2.90;;;;;;;22.85;44.30;101856.84;5049770;28;20127;-65
2022/06/15 10:23:39;;;;;;;10.50;2.35;;;;;;;23.05;48.83;101846.72;5036726;28;20103;-65
2022/06/15 10:26:05;;;;;;;7.95;2.75;;;;;;;23.11;44.40;101847.97;5048697;28;20387;-66
2022/06/15 10:28:37;;;;;;;5.95;2.35;;;;;;;23.30;45.73;101842.38;5049856;28;20032;-65
2022/06/15 10:31:07;;;;;;;;;;;;;;;23.63;43.37;101837.19;5049465;28;20044;-65
2022/06/15 10:33:47;;;;;;;6.78;2.70;;;;;;;23.67;44.42;101827.72;5049459;28;19920;-65
2022/06/15 10:36:28;;;;;;;9.20;2.85;;;;;;;23.48;43.92;101834.19;5048624;28;20068;-65
2022/06/15 10:39:04;;;;;;;6.82;2.35;;;;;;;23.72;43.88;101825.38;5036978;28;20086;-65
2022/06/15 10:41:47;;;;;;;7.55;2.60;;;;;;;23.55;43.58;101828.97;5028592;28;20080;-66
2022/06/15 10:44:26;;;;;;;6.15;2.55;;;;;;;23.31;42.46;101830.47;5049665;28;20046;-66
2022/06/15 10:46:55;;;;;;;6.95;2.22;;;;;;;23.65;44.18;101827.91;5050580;28;20082;-66
2022/06/15 10:49:22;;;;;;;6.53;2.67;;;;;;;23.55;41.29;101828.97;5049618;28;20320;-66
2022/06/15 10:51:50;;;;;;;5.38;2.25;;;;;;;23.59;41.80;101827.63;5050418;28;20550;-65
2022/06/15 10:54:18;;;;;;;10.13;2.60;;;;;;;23.67;39.34;101825.00;5048796;28;20044;-66
2022/06/15 11:02:40;;;;;;;5.18;2.10;;;;;;;23.63;41.44;101819.00;5046556;28;20036;-66
2022/06/15 11:05:08;;;;;;;5.50;2.28;;;;;;;23.57;39.77;101813.31;5036073;28;20040;-65
2022/06/15 11:07:47;;;;;;;4.30;2.60;;;;;;;23.73;38.71;101824.38;5032792;28;20436;-66
2022/06/15 11:10:25;;;;;;;15.93;3.17;;;;;;;24.19;39.25;101822.25;5047752;28;20165;-66
2022/06/15 11:12:58;;;;;;;4.55;2.00;;;;;;;24.21;41.48;101821.09;5047940;28;20407;-66
2022/06/15 11:19:00;;;;;;;5.85;2.33;;;;;;;23.91;36.78;101816.16;5043711;28;20819;-65
2022/06/15 11:21:31;;;;;;;4.22;2.20;;;;;;;24.37;37.31;101820.34;5013871;28;20052;-66
2022/06/15 11:24:30;;;;;;;3.67;1.60;;;;;;;24.23;35.76;101815.47;5042932;28;20106;-66
2022/06/15 11:27:16;;;;;;;6.82;2.03;;;;;;;24.04;39.75;101811.97;5042249;28;20476;-66
2022/06/15 11:29:41;;;;;;;4.20;2.20;;;;;;;24.54;41.86;101813.06;5047050;28;20040;-65
2022/06/15 11:32:15;;;;;;;6.10;2.03;;;;;;;24.16;43.78;101807.09;5047612;28;20410;-65
2022/06/15 11:35:10;;;;;;;8.07;1.88;;;;;;;24.49;39.73;101810.84;5035352;28;20060;-65
2022/06/15 11:37:41;;;;;;;5.55;2.40;;;;;;;24.23;41.69;101807.28;5035784;28;20087;-64
2022/06/15 11:40:32;;;;;;;8.63;2.40;;;;;;;24.08;46.40;101811.66;5028881;28;20041;-65
2022/06/15 11:42:59;;;;;;;4.30;2.03;;;;;;;23.90;41.53;101809.84;5030136;28;20471;-64
2022/06/15 11:45:35;;;;;;;5.32;2.28;;;;;;;24.08;43.06;101812.50;5029594;28;20483;-65
2022/06/15 11:48:07;;;;;;;7.40;2.30;;;;;;;24.49;41.54;101808.13;5034722;28;20139;-65
2022/06/15 11:50:46;;;;;;;4.93;2.35;;;;;;;24.95;43.31;101796.81;5029313;28;20052;-65
2022/06/15 11:53:36;;;;;;;8.20;2.75;;;;;;;24.23;41.81;101796.38;5027844;28;20044;-65
2022/06/15 11:56:18;;;;;;;6.10;2.33;;;;;;;24.50;39.40;101796.22;5028729;28;20044;-64
2022/06/15 11:59:04;;;;;;;4.38;2.03;;;;;;;24.52;38.62;101796.88;5042495;28;20714;-65
2022/06/15 12:01:50;;;;;;;5.70;2.30;;;;;;;24.38;41.56;101793.94;5033867;28;20037;-62